sensor_id;sensor_type;location;lat;lon;timestamp;P1;durP1;ratioP1;P2;durP2;ratioP2
19826;SDS011;10074;52.018;4.726;2022-12-18T00:03:47;4.13;;;3.13;;
19826;SDS011;10074;52.018;4.726;2022-12-18T00:08:48;2.73;;;2.50;;
19826;SDS011;10074;52.018;4.726;2022-12-18T00:13:48;3.57;;;3.00;;
19826;SDS011;10074;52.018;4.726;2022-12-18T00:18:49;2.93;;;2.70;;
19826;SDS011;10074;52.018;4.726;2022-12-18T00:23:52;4.53;;;3.27;;
19826;SDS011;10074;52.018;4.726;2022-12-18T00:28:52;4.30;;;3.90;;
19826;SDS011;10074;52.018;4.726;2022-12-18T00:33:54;2.87;;;2.43;;
19826;SDS011;10074;52.018;4.726;2022-12-18T00:38:56;3.40;;;3.10;;
19826;SDS011;10074;52.018;4.726;2022-12-18T00:43:58;2.57;;;2.20;;
19826;SDS011;10074;52.018;4.726;2022-12-18T00:48:58;3.27;;;2.43;;
19826;SDS011;10074;52.018;4.726;2022-12-18T00:53:59;5.37;;;2.97;;
19826;SDS011;10074;52.018;4.726;2022-12-18T00:59:00;8.33;;;3.03;;
19826;SDS011;10074;52.018;4.726;2022-12-18T01:04:01;3.60;;;2.43;;
19826;SDS011;10074;52.018;4.726;2022-12-18T01:09:02;3.17;;;2.83;;
19826;SDS011;10074;52.018;4.726;2022-12-18T01:14:03;3.67;;;2.77;;
19826;SDS011;10074;52.018;4.726;2022-12-18T01:19:03;3.33;;;2.60;;
19826;SDS011;10074;52.018;4.726;2022-12-18T01:24:04;5.33;;;2.97;;
19826;SDS011;10074;52.018;4.726;2022-12-18T01:29:05;3.60;;;3.23;;
19826;SDS011;10074;52.018;4.726;2022-12-18T01:34:05;4.50;;;4.07;;
19826;SDS011;10074;52.018;4.726;2022-12-18T01:39:14;2.33;;;2.13;;
19826;SDS011;10074;52.018;4.726;2022-12-18T01:49:54;3.47;;;3.17;;
19826;SDS011;10074;52.018;4.726;2022-12-18T01:54:56;4.10;;;2.83;;
19826;SDS011;10074;52.018;4.726;2022-12-18T02:00:04;4.43;;;3.63;;
19826;SDS011;10074;52.018;4.726;2022-12-18T02:05:08;3.27;;;2.83;;
19826;SDS011;10074;52.018;4.726;2022-12-18T02:10:20;4.07;;;3.13;;
19826;SDS011;10074;52.018;4.726;2022-12-18T02:15:31;3.37;;;2.83;;
19826;SDS011;10074;52.018;4.726;2022-12-18T02:20:47;5.63;;;2.67;;
19826;SDS011;10074;52.018;4.726;2022-12-18T02:31:14;3.83;;;2.70;;
19826;SDS011;10074;52.018;4.726;2022-12-18T02:36:17;3.37;;;2.33;;
19826;SDS011;10074;52.018;4.726;2022-12-18T02:41:20;3.57;;;2.47;;
19826;SDS011;10074;52.018;4.726;2022-12-18T02:51:37;2.93;;;2.70;;
19826;SDS011;10074;52.018;4.726;2022-12-18T02:56:49;2.47;;;2.27;;
19826;SDS011;10074;52.018;4.726;2022-12-18T03:01:58;4.30;;;2.67;;
19826;SDS011;10074;52.018;4.726;2022-12-18T03:07:02;3.43;;;2.90;;
19826;SDS011;10074;52.018;4.726;2022-12-18T03:12:16;2.63;;;2.43;;
19826;SDS011;10074;52.018;4.726;2022-12-18T03:17:25;2.50;;;2.30;;
19826;SDS011;10074;52.018;4.726;2022-12-18T03:22:27;4.20;;;2.40;;
19826;SDS011;10074;52.018;4.726;2022-12-18T03:27:31;2.70;;;2.50;;
19826;SDS011;10074;52.018;4.726;2022-12-18T03:38:00;4.37;;;3.97;;
19826;SDS011;10074;52.018;4.726;2022-12-18T03:43:03;4.47;;;2.83;;
19826;SDS011;10074;52.018;4.726;2022-12-18T03:58:30;4.37;;;3.60;;
19826;SDS011;10074;52.018;4.726;2022-12-18T04:03:33;2.37;;;2.17;;
19826;SDS011;10074;52.018;4.726;2022-12-18T04:08:35;4.83;;;2.53;;
19826;SDS011;10074;52.018;4.726;2022-12-18T04:13:36;3.37;;;3.07;;
19826;SDS011;10074;52.018;4.726;2022-12-18T04:18:37;4.93;;;3.27;;
19826;SDS011;10074;52.018;4.726;2022-12-18T04:23:38;3.47;;;3.22;;
19826;SDS011;10074;52.018;4.726;2022-12-18T04:28:38;2.37;;;2.17;;
19826;SDS011;10074;52.018;4.726;2022-12-18T04:33:38;4.17;;;3.77;;
19826;SDS011;10074;52.018;4.726;2022-12-18T04:38:38;4.97;;;2.95;;
19826;SDS011;10074;52.018;4.726;2022-12-18T04:43:39;3.77;;;3.07;;
19826;SDS011;10074;52.018;4.726;2022-12-18T04:48:39;4.27;;;3.30;;
19826;SDS011;10074;52.018;4.726;2022-12-18T04:53:39;3.67;;;3.37;;
19826;SDS011;10074;52.018;4.726;2022-12-18T04:58:41;4.43;;;2.80;;
19826;SDS011;10074;52.018;4.726;2022-12-18T05:03:43;2.13;;;2.03;;
19826;SDS011;10074;52.018;4.726;2022-12-18T05:08:43;3.57;;;2.33;;
19826;SDS011;10074;52.018;4.726;2022-12-18T05:13:44;3.90;;;3.40;;
19826;SDS011;10074;52.018;4.726;2022-12-18T05:18:45;5.60;;;2.67;;
19826;SDS011;10074;52.018;4.726;2022-12-18T05:23:45;4.30;;;2.77;;
19826;SDS011;10074;52.018;4.726;2022-12-18T05:28:45;3.30;;;2.53;;
19826;SDS011;10074;52.018;4.726;2022-12-18T05:33:46;3.00;;;2.70;;
19826;SDS011;10074;52.018;4.726;2022-12-18T05:38:49;2.80;;;2.03;;
19826;SDS011;10074;52.018;4.726;2022-12-18T05:43:50;3.37;;;2.80;;
19826;SDS011;10074;52.018;4.726;2022-12-18T05:48:50;4.77;;;2.60;;
19826;SDS011;10074;52.018;4.726;2022-12-18T05:53:51;4.03;;;2.63;;
19826;SDS011;10074;52.018;4.726;2022-12-18T05:58:52;4.80;;;3.70;;
19826;SDS011;10074;52.018;4.726;2022-12-18T06:03:54;3.07;;;2.87;;
19826;SDS011;10074;52.018;4.726;2022-12-18T06:08:55;2.53;;;1.83;;
19826;SDS011;10074;52.018;4.726;2022-12-18T06:13:57;5.17;;;3.47;;
19826;SDS011;10074;52.018;4.726;2022-12-18T06:19:01;2.33;;;2.17;;
19826;SDS011;10074;52.018;4.726;2022-12-18T06:24:04;2.20;;;2.00;;
19826;SDS011;10074;52.018;4.726;2022-12-18T06:29:05;3.23;;;2.23;;
19826;SDS011;10074;52.018;4.726;2022-12-18T06:34:06;3.30;;;3.00;;
19826;SDS011;10074;52.018;4.726;2022-12-18T06:39:06;4.27;;;2.60;;
19826;SDS011;10074;52.018;4.726;2022-12-18T06:44:06;3.92;;;2.97;;
19826;SDS011;10074;52.018;4.726;2022-12-18T06:49:07;2.37;;;2.17;;
19826;SDS011;10074;52.018;4.726;2022-12-18T06:54:09;2.63;;;2.30;;
19826;SDS011;10074;52.018;4.726;2022-12-18T06:59:09;2.40;;;2.20;;
19826;SDS011;10074;52.018;4.726;2022-12-18T07:04:10;3.23;;;2.47;;
19826;SDS011;10074;52.018;4.726;2022-12-18T07:09:11;4.50;;;2.93;;
19826;SDS011;10074;52.018;4.726;2022-12-18T07:14:11;4.00;;;2.60;;
19826;SDS011;10074;52.018;4.726;2022-12-18T07:19:12;4.13;;;3.00;;
19826;SDS011;10074;52.018;4.726;2022-12-18T07:24:12;2.37;;;1.90;;
19826;SDS011;10074;52.018;4.726;2022-12-18T07:29:12;3.50;;;1.93;;
19826;SDS011;10074;52.018;4.726;2022-12-18T07:34:13;2.57;;;2.37;;
19826;SDS011;10074;52.018;4.726;2022-12-18T07:39:15;4.00;;;2.43;;
19826;SDS011;10074;52.018;4.726;2022-12-18T07:44:15;3.67;;;2.33;;
19826;SDS011;10074;52.018;4.726;2022-12-18T07:49:15;2.70;;;2.47;;
19826;SDS011;10074;52.018;4.726;2022-12-18T07:54:16;2.30;;;2.10;;
19826;SDS011;10074;52.018;4.726;2022-12-18T07:59:16;4.10;;;1.97;;
19826;SDS011;10074;52.018;4.726;2022-12-18T08:04:17;3.20;;;2.13;;
19826;SDS011;10074;52.018;4.726;2022-12-18T08:09:18;3.40;;;2.53;;
19826;SDS011;10074;52.018;4.726;2022-12-18T08:14:18;2.73;;;2.50;;
19826;SDS011;10074;52.018;4.726;2022-12-18T08:19:18;1.87;;;1.43;;
19826;SDS011;10074;52.018;4.726;2022-12-18T08:24:19;2.33;;;1.83;;
19826;SDS011;10074;52.018;4.726;2022-12-18T08:29:19;1.67;;;1.53;;
19826;SDS011;10074;52.018;4.726;2022-12-18T08:34:19;2.57;;;2.47;;
19826;SDS011;10074;52.018;4.726;2022-12-18T08:39:20;1.50;;;1.40;;
19826;SDS011;10074;52.018;4.726;2022-12-18T08:44:20;2.00;;;1.77;;
19826;SDS011;10074;52.018;4.726;2022-12-18T08:49:39;1.87;;;1.47;;
19826;SDS011;10074;52.018;4.726;2022-12-18T08:54:39;1.98;;;1.85;;
19826;SDS011;10074;52.018;4.726;2022-12-18T08:59:39;3.17;;;1.40;;
19826;SDS011;10074;52.018;4.726;2022-12-18T09:04:40;2.17;;;1.97;;
19826;SDS011;10074;52.018;4.726;2022-12-18T09:09:40;2.00;;;1.17;;
19826;SDS011;10074;52.018;4.726;2022-12-18T09:14:40;1.63;;;1.53;;
19826;SDS011;10074;52.018;4.726;2022-12-18T09:19:41;2.00;;;1.90;;
19826;SDS011;10074;52.018;4.726;2022-12-18T09:24:41;2.63;;;1.60;;
19826;SDS011;10074;52.018;4.726;2022-12-18T09:29:41;2.57;;;1.87;;
19826;SDS011;10074;52.018;4.726;2022-12-18T09:34:42;1.40;;;1.30;;
19826;SDS011;10074;52.018;4.726;2022-12-18T09:39:42;1.90;;;1.70;;
19826;SDS011;10074;52.018;4.726;2022-12-18T09:44:43;2.43;;;2.23;;
19826;SDS011;10074;52.018;4.726;2022-12-18T09:55:28;2.60;;;1.53;;
19826;SDS011;10074;52.018;4.726;2022-12-18T10:00:34;2.80;;;1.47;;
19826;SDS011;10074;52.018;4.726;2022-12-18T10:10:51;1.90;;;1.80;;
19826;SDS011;10074;52.018;4.726;2022-12-18T10:20:56;2.30;;;2.10;;
19826;SDS011;10074;52.018;4.726;2022-12-18T10:26:04;2.07;;;1.70;;
19826;SDS011;10074;52.018;4.726;2022-12-18T10:31:19;1.33;;;1.00;;
19826;SDS011;10074;52.018;4.726;2022-12-18T10:36:23;4.87;;;1.90;;
19826;SDS011;10074;52.018;4.726;2022-12-18T10:41:25;1.57;;;1.47;;
19826;SDS011;10074;52.018;4.726;2022-12-18T10:46:27;2.20;;;2.00;;
19826;SDS011;10074;52.018;4.726;2022-12-18T10:51:28;2.00;;;1.90;;
19826;SDS011;10074;52.018;4.726;2022-12-18T10:56:31;1.93;;;1.53;;
19826;SDS011;10074;52.018;4.726;2022-12-18T11:07:00;3.10;;;1.37;;
19826;SDS011;10074;52.018;4.726;2022-12-18T11:12:16;1.97;;;1.50;;
19826;SDS011;10074;52.018;4.726;2022-12-18T11:22:32;2.50;;;1.70;;
19826;SDS011;10074;52.018;4.726;2022-12-18T11:27:34;1.47;;;1.37;;
19826;SDS011;10074;52.018;4.726;2022-12-18T11:32:43;3.07;;;2.33;;
19826;SDS011;10074;52.018;4.726;2022-12-18T11:37:49;5.00;;;2.63;;
19826;SDS011;10074;52.018;4.726;2022-12-18T11:43:07;1.10;;;1.00;;
19826;SDS011;10074;52.018;4.726;2022-12-18T11:53:16;1.93;;;1.70;;
19826;SDS011;10074;52.018;4.726;2022-12-18T12:19:52;1.33;;;1.00;;
19826;SDS011;10074;52.018;4.726;2022-12-18T12:36:02;2.00;;;1.90;;
19826;SDS011;10074;52.018;4.726;2022-12-18T12:41:06;2.30;;;1.13;;
19826;SDS011;10074;52.018;4.726;2022-12-18T12:46:32;1.30;;;1.20;;
19826;SDS011;10074;52.018;4.726;2022-12-18T12:51:37;1.30;;;1.17;;
19826;SDS011;10074;52.018;4.726;2022-12-18T12:56:51;1.20;;;1.10;;
19826;SDS011;10074;52.018;4.726;2022-12-18T13:02:06;1.83;;;1.67;;
19826;SDS011;10074;52.018;4.726;2022-12-18T13:18:24;1.30;;;1.20;;
19826;SDS011;10074;52.018;4.726;2022-12-18T13:33:45;1.67;;;1.03;;
19826;SDS011;10074;52.018;4.726;2022-12-18T13:38:46;1.47;;;1.30;;
19826;SDS011;10074;52.018;4.726;2022-12-18T13:43:50;0.95;;;0.95;;
19826;SDS011;10074;52.018;4.726;2022-12-18T13:48:53;1.77;;;1.67;;
19826;SDS011;10074;52.018;4.726;2022-12-18T13:59:37;2.63;;;1.50;;
19826;SDS011;10074;52.018;4.726;2022-12-18T14:04:39;0.80;;;0.80;;
19826;SDS011;10074;52.018;4.726;2022-12-18T14:09:40;1.27;;;0.80;;
19826;SDS011;10074;52.018;4.726;2022-12-18T14:14:44;2.67;;;2.00;;
19826;SDS011;10074;52.018;4.726;2022-12-18T14:19:47;3.83;;;2.50;;
19826;SDS011;10074;52.018;4.726;2022-12-18T14:25:04;1.43;;;1.33;;
19826;SDS011;10074;52.018;4.726;2022-12-18T14:35:36;3.17;;;1.70;;
19826;SDS011;10074;52.018;4.726;2022-12-18T14:40:41;2.60;;;2.27;;
19826;SDS011;10074;52.018;4.726;2022-12-18T14:45:43;1.93;;;1.73;;
19826;SDS011;10074;52.018;4.726;2022-12-18T14:50:44;0.87;;;0.87;;
19826;SDS011;10074;52.018;4.726;2022-12-18T14:55:54;1.60;;;1.23;;
19826;SDS011;10074;52.018;4.726;2022-12-18T15:00:54;2.47;;;1.60;;
19826;SDS011;10074;52.018;4.726;2022-12-18T15:05:55;1.17;;;1.13;;
19826;SDS011;10074;52.018;4.726;2022-12-18T15:10:55;1.63;;;1.53;;
19826;SDS011;10074;52.018;4.726;2022-12-18T15:15:57;0.87;;;0.87;;
19826;SDS011;10074;52.018;4.726;2022-12-18T15:21:14;4.87;;;1.13;;
19826;SDS011;10074;52.018;4.726;2022-12-18T15:26:21;1.50;;;1.40;;
19826;SDS011;10074;52.018;4.726;2022-12-18T15:31:32;0.80;;;0.80;;
19826;SDS011;10074;52.018;4.726;2022-12-18T15:36:35;1.37;;;1.27;;
19826;SDS011;10074;52.018;4.726;2022-12-18T15:41:36;1.23;;;1.13;;
19826;SDS011;10074;52.018;4.726;2022-12-18T15:46:36;1.53;;;0.90;;
19826;SDS011;10074;52.018;4.726;2022-12-18T15:51:37;1.93;;;1.57;;
19826;SDS011;10074;52.018;4.726;2022-12-18T15:56:38;1.23;;;1.13;;
19826;SDS011;10074;52.018;4.726;2022-12-18T16:01:57;1.93;;;1.23;;
19826;SDS011;10074;52.018;4.726;2022-12-18T16:06:57;1.47;;;1.37;;
19826;SDS011;10074;52.018;4.726;2022-12-18T16:12:00;1.20;;;1.00;;
19826;SDS011;10074;52.018;4.726;2022-12-18T16:17:02;1.37;;;1.27;;
19826;SDS011;10074;52.018;4.726;2022-12-18T16:22:19;3.83;;;2.17;;
19826;SDS011;10074;52.018;4.726;2022-12-18T16:27:27;1.30;;;1.17;;
19826;SDS011;10074;52.018;4.726;2022-12-18T16:32:28;1.67;;;1.40;;
19826;SDS011;10074;52.018;4.726;2022-12-18T16:37:28;1.40;;;1.30;;
19826;SDS011;10074;52.018;4.726;2022-12-18T16:42:28;1.50;;;1.00;;
19826;SDS011;10074;52.018;4.726;2022-12-18T16:47:29;1.07;;;0.97;;
19826;SDS011;10074;52.018;4.726;2022-12-18T16:52:29;1.47;;;1.37;;
19826;SDS011;10074;52.018;4.726;2022-12-18T16:57:30;2.77;;;2.53;;
19826;SDS011;10074;52.018;4.726;2022-12-18T17:02:30;0.90;;;0.80;;
19826;SDS011;10074;52.018;4.726;2022-12-18T17:07:30;1.13;;;1.07;;
19826;SDS011;10074;52.018;4.726;2022-12-18T17:12:31;1.80;;;1.70;;
19826;SDS011;10074;52.018;4.726;2022-12-18T17:17:31;1.20;;;1.10;;
19826;SDS011;10074;52.018;4.726;2022-12-18T17:22:31;0.90;;;0.90;;
19826;SDS011;10074;52.018;4.726;2022-12-18T17:27:32;1.00;;;1.00;;
19826;SDS011;10074;52.018;4.726;2022-12-18T17:32:32;2.20;;;1.77;;
19826;SDS011;10074;52.018;4.726;2022-12-18T17:37:32;1.50;;;1.40;;
19826;SDS011;10074;52.018;4.726;2022-12-18T17:42:32;1.63;;;1.53;;
19826;SDS011;10074;52.018;4.726;2022-12-18T17:47:33;1.53;;;1.00;;
19826;SDS011;10074;52.018;4.726;2022-12-18T17:52:33;1.17;;;1.17;;
19826;SDS011;10074;52.018;4.726;2022-12-18T17:57:34;1.23;;;0.90;;
19826;SDS011;10074;52.018;4.726;2022-12-18T18:02:34;1.83;;;1.40;;
19826;SDS011;10074;52.018;4.726;2022-12-18T18:07:34;1.20;;;1.10;;
19826;SDS011;10074;52.018;4.726;2022-12-18T18:12:35;1.38;;;1.27;;
19826;SDS011;10074;52.018;4.726;2022-12-18T18:17:54;1.53;;;1.40;;
19826;SDS011;10074;52.018;4.726;2022-12-18T18:22:55;1.20;;;1.10;;
19826;SDS011;10074;52.018;4.726;2022-12-18T18:27:55;3.17;;;1.60;;
19826;SDS011;10074;52.018;4.726;2022-12-18T18:32:55;1.80;;;1.30;;
19826;SDS011;10074;52.018;4.726;2022-12-18T18:37:56;2.03;;;1.93;;
19826;SDS011;10074;52.018;4.726;2022-12-18T18:42:56;1.52;;;1.42;;
19826;SDS011;10074;52.018;4.726;2022-12-18T18:47:56;1.10;;;1.10;;
19826;SDS011;10074;52.018;4.726;2022-12-18T18:52:57;2.60;;;1.90;;
19826;SDS011;10074;52.018;4.726;2022-12-18T18:57:58;2.43;;;2.30;;
19826;SDS011;10074;52.018;4.726;2022-12-18T19:02:58;1.93;;;1.80;;
19826;SDS011;10074;52.018;4.726;2022-12-18T19:07:58;3.57;;;2.70;;
19826;SDS011;10074;52.018;4.726;2022-12-18T19:12:59;1.90;;;1.73;;
19826;SDS011;10074;52.018;4.726;2022-12-18T19:18:18;0.80;;;0.80;;
19826;SDS011;10074;52.018;4.726;2022-12-18T19:23:20;1.33;;;1.23;;
19826;SDS011;10074;52.018;4.726;2022-12-18T19:28:21;1.03;;;1.03;;
19826;SDS011;10074;52.018;4.726;2022-12-18T19:33:25;1.73;;;1.10;;
19826;SDS011;10074;52.018;4.726;2022-12-18T19:38:26;2.03;;;1.93;;
19826;SDS011;10074;52.018;4.726;2022-12-18T19:43:27;2.27;;;1.13;;
19826;SDS011;10074;52.018;4.726;2022-12-18T19:48:28;2.77;;;1.63;;
19826;SDS011;10074;52.018;4.726;2022-12-18T19:53:28;2.00;;;1.80;;
19826;SDS011;10074;52.018;4.726;2022-12-18T19:58:28;1.97;;;0.97;;
19826;SDS011;10074;52.018;4.726;2022-12-18T20:03:29;1.43;;;1.00;;
19826;SDS011;10074;52.018;4.726;2022-12-18T20:08:29;2.03;;;1.00;;
19826;SDS011;10074;52.018;4.726;2022-12-18T20:13:29;5.50;;;1.73;;
19826;SDS011;10074;52.018;4.726;2022-12-18T20:18:30;2.87;;;1.70;;
19826;SDS011;10074;52.018;4.726;2022-12-18T20:23:30;1.47;;;1.37;;
19826;SDS011;10074;52.018;4.726;2022-12-18T20:28:31;2.30;;;1.20;;
19826;SDS011;10074;52.018;4.726;2022-12-18T20:33:31;2.57;;;1.60;;
19826;SDS011;10074;52.018;4.726;2022-12-18T20:38:32;1.60;;;1.50;;
19826;SDS011;10074;52.018;4.726;2022-12-18T20:43:33;2.13;;;1.93;;
19826;SDS011;10074;52.018;4.726;2022-12-18T20:48:34;1.83;;;1.73;;
19826;SDS011;10074;52.018;4.726;2022-12-18T20:53:35;1.43;;;1.20;;
19826;SDS011;10074;52.018;4.726;2022-12-18T20:58:35;2.03;;;1.30;;
19826;SDS011;10074;52.018;4.726;2022-12-18T21:03:36;2.00;;;1.77;;
19826;SDS011;10074;52.018;4.726;2022-12-18T21:08:38;1.83;;;1.20;;
19826;SDS011;10074;52.018;4.726;2022-12-18T21:13:38;3.70;;;1.43;;
19826;SDS011;10074;52.018;4.726;2022-12-18T21:18:38;1.60;;;1.50;;
19826;SDS011;10074;52.018;4.726;2022-12-18T21:23:39;3.47;;;2.00;;
19826;SDS011;10074;52.018;4.726;2022-12-18T21:28:39;1.10;;;1.00;;
19826;SDS011;10074;52.018;4.726;2022-12-18T21:33:39;3.03;;;2.60;;
19826;SDS011;10074;52.018;4.726;2022-12-18T21:38:39;1.67;;;1.57;;
19826;SDS011;10074;52.018;4.726;2022-12-18T21:43:40;1.30;;;1.20;;
19826;SDS011;10074;52.018;4.726;2022-12-18T21:49:16;1.63;;;1.53;;
19826;SDS011;10074;52.018;4.726;2022-12-18T21:54:19;1.87;;;1.77;;
19826;SDS011;10074;52.018;4.726;2022-12-18T21:59:21;1.77;;;1.33;;
19826;SDS011;10074;52.018;4.726;2022-12-18T22:04:21;1.93;;;1.80;;
19826;SDS011;10074;52.018;4.726;2022-12-18T22:09:23;1.33;;;1.23;;
19826;SDS011;10074;52.018;4.726;2022-12-18T22:14:24;2.67;;;2.23;;
19826;SDS011;10074;52.018;4.726;2022-12-18T22:19:24;1.40;;;1.30;;
19826;SDS011;10074;52.018;4.726;2022-12-18T22:24:25;1.93;;;1.13;;
19826;SDS011;10074;52.018;4.726;2022-12-18T22:29:28;1.20;;;1.10;;
19826;SDS011;10074;52.018;4.726;2022-12-18T22:34:46;2.10;;;1.30;;
19826;SDS011;10074;52.018;4.726;2022-12-18T22:39:47;1.37;;;1.27;;
19826;SDS011;10074;52.018;4.726;2022-12-18T22:44:47;0.97;;;0.93;;
19826;SDS011;10074;52.018;4.726;2022-12-18T22:49:47;1.40;;;1.30;;
19826;SDS011;10074;52.018;4.726;2022-12-18T22:54:48;1.23;;;1.13;;
19826;SDS011;10074;52.018;4.726;2022-12-18T22:59:48;5.20;;;2.23;;
19826;SDS011;10074;52.018;4.726;2022-12-18T23:04:50;2.73;;;1.83;;
19826;SDS011;10074;52.018;4.726;2022-12-18T23:09:50;1.40;;;1.30;;
19826;SDS011;10074;52.018;4.726;2022-12-18T23:14:51;2.33;;;2.13;;
19826;SDS011;10074;52.018;4.726;2022-12-18T23:19:51;1.53;;;1.43;;
19826;SDS011;10074;52.018;4.726;2022-12-18T23:24:52;1.73;;;1.27;;
19826;SDS011;10074;52.018;4.726;2022-12-18T23:29:52;2.20;;;2.00;;
19826;SDS011;10074;52.018;4.726;2022-12-18T23:34:52;1.70;;;1.60;;
19826;SDS011;10074;52.018;4.726;2022-12-18T23:39:53;2.83;;;1.80;;
19826;SDS011;10074;52.018;4.726;2022-12-18T23:44:53;1.52;;;1.42;;
19826;SDS011;10074;52.018;4.726;2022-12-18T23:49:53;2.00;;;1.80;;
19826;SDS011;10074;52.018;4.726;2022-12-18T23:54:54;2.03;;;1.83;;
19826;SDS011;10074;52.018;4.726;2022-12-18T23:59:54;2.17;;;1.10;;
